sensor_id;sensor_type;location;lat;lon;timestamp;pressure;altitude;pressure_sealevel;temperature;humidity
21182;BME280;10749;46.296;7.524;2023-02-18T00:01:22;96238.41;;;9.64;31.78
21182;BME280;10749;46.296;7.524;2023-02-18T00:03:48;96238.53;;;9.62;31.49
21182;BME280;10749;46.296;7.524;2023-02-18T00:06:20;96236.44;;;9.66;31.68
21182;BME280;10749;46.296;7.524;2023-02-18T00:08:46;96231.16;;;9.66;31.20
21182;BME280;10749;46.296;7.524;2023-02-18T00:11:13;96229.50;;;9.65;31.48
21182;BME280;10749;46.296;7.524;2023-02-18T00:13:38;96233.13;;;9.64;31.64
21182;BME280;10749;46.296;7.524;2023-02-18T00:16:07;96229.78;;;9.62;31.54
21182;BME280;10749;46.296;7.524;2023-02-18T00:18:33;96226.03;;;9.64;31.66
21182;BME280;10749;46.296;7.524;2023-02-18T00:20:58;96233.25;;;9.62;31.91
21182;BME280;10749;46.296;7.524;2023-02-18T00:23:24;96232.41;;;9.62;31.35
21182;BME280;10749;46.296;7.524;2023-02-18T00:25:58;96229.50;;;9.65;30.74
21182;BME280;10749;46.296;7.524;2023-02-18T00:28:23;96228.09;;;9.70;31.13
21182;BME280;10749;46.296;7.524;2023-02-18T00:30:48;96228.22;;;9.79;31.12
21182;BME280;10749;46.296;7.524;2023-02-18T00:33:14;96226.00;;;9.84;31.03
21182;BME280;10749;46.296;7.524;2023-02-18T00:35:39;96225.03;;;9.85;31.30
21182;BME280;10749;46.296;7.524;2023-02-18T00:38:04;96226.56;;;9.87;31.75
21182;BME280;10749;46.296;7.524;2023-02-18T00:40:29;96220.59;;;9.85;31.65
21182;BME280;10749;46.296;7.524;2023-02-18T00:42:54;96222.81;;;9.80;31.20
21182;BME280;10749;46.296;7.524;2023-02-18T00:45:20;96221.00;;;9.71;31.42
21182;BME280;10749;46.296;7.524;2023-02-18T00:47:45;96222.56;;;9.64;31.77
21182;BME280;10749;46.296;7.524;2023-02-18T00:50:10;96229.81;;;9.52;31.68
21182;BME280;10749;46.296;7.524;2023-02-18T00:52:36;96228.13;;;9.51;31.25
21182;BME280;10749;46.296;7.524;2023-02-18T00:55:01;96217.25;;;9.45;31.69
21182;BME280;10749;46.296;7.524;2023-02-18T00:57:26;96224.78;;;9.40;31.79
21182;BME280;10749;46.296;7.524;2023-02-18T00:59:52;96221.44;;;9.38;32.14
21182;BME280;10749;46.296;7.524;2023-02-18T01:02:17;96224.09;;;9.38;32.45
21182;BME280;10749;46.296;7.524;2023-02-18T01:04:42;96216.88;;;9.40;31.99
21182;BME280;10749;46.296;7.524;2023-02-18T01:07:07;96213.63;;;9.36;32.15
21182;BME280;10749;46.296;7.524;2023-02-18T01:09:34;96194.44;;;9.24;32.19
21182;BME280;10749;46.296;7.524;2023-02-18T01:12:00;96211.69;;;9.28;32.30
21182;BME280;10749;46.296;7.524;2023-02-18T01:14:25;96207.81;;;9.23;32.33
21182;BME280;10749;46.296;7.524;2023-02-18T01:16:50;96210.59;;;9.21;32.16
21182;BME280;10749;46.296;7.524;2023-02-18T01:19:16;96211.13;;;9.15;32.55
21182;BME280;10749;46.296;7.524;2023-02-18T01:21:41;96213.91;;;9.04;32.95
21182;BME280;10749;46.296;7.524;2023-02-18T01:24:06;96205.84;;;8.96;32.82
21182;BME280;10749;46.296;7.524;2023-02-18T01:26:31;96210.16;;;8.97;32.38
21182;BME280;10749;46.296;7.524;2023-02-18T01:28:57;96200.00;;;8.93;32.83
21182;BME280;10749;46.296;7.524;2023-02-18T01:31:22;96209.84;;;8.91;32.60
21182;BME280;10749;46.296;7.524;2023-02-18T01:33:47;96202.47;;;8.85;33.05
21182;BME280;10749;46.296;7.524;2023-02-18T01:36:12;96207.75;;;8.85;32.93
21182;BME280;10749;46.296;7.524;2023-02-18T01:38:38;96205.53;;;8.80;32.85
21182;BME280;10749;46.296;7.524;2023-02-18T01:41:04;96204.81;;;8.78;32.72
21182;BME280;10749;46.296;7.524;2023-02-18T01:43:30;96209.00;;;8.80;32.60
21182;BME280;10749;46.296;7.524;2023-02-18T01:46:11;96203.56;;;8.72;32.41
21182;BME280;10749;46.296;7.524;2023-02-18T01:48:38;96204.09;;;8.66;33.05
21182;BME280;10749;46.296;7.524;2023-02-18T01:51:21;96198.13;;;8.64;33.26
21182;BME280;10749;46.296;7.524;2023-02-18T01:57:06;96207.28;;;8.70;32.93
21182;BME280;10749;46.296;7.524;2023-02-18T01:59:38;96201.22;;;8.69;33.15
21182;BME280;10749;46.296;7.524;2023-02-18T02:02:06;96193.53;;;8.66;32.81
21182;BME280;10749;46.296;7.524;2023-02-18T02:04:33;96191.75;;;8.67;33.12
21182;BME280;10749;46.296;7.524;2023-02-18T02:06:58;96194.66;;;8.64;33.60
21182;BME280;10749;46.296;7.524;2023-02-18T02:09:25;96190.63;;;8.60;33.70
21182;BME280;10749;46.296;7.524;2023-02-18T02:29:45;96180.75;;;8.62;32.77
21182;BME280;10749;46.296;7.524;2023-02-18T02:32:37;96189.63;;;8.51;33.43
21182;BME280;10749;46.296;7.524;2023-02-18T02:35:30;96190.03;;;8.47;33.63
21182;BME280;10749;46.296;7.524;2023-02-18T02:38:05;96192.94;;;8.44;33.31
21182;BME280;10749;46.296;7.524;2023-02-18T02:49:41;96190.44;;;8.21;34.06
21182;BME280;10749;46.296;7.524;2023-02-18T02:51:51;96197.41;;;8.22;34.26
21182;BME280;10749;46.296;7.524;2023-02-18T02:54:19;96197.66;;;8.19;34.49
21182;BME280;10749;46.296;7.524;2023-02-18T02:56:45;96195.72;;;8.21;34.19
21182;BME280;10749;46.296;7.524;2023-02-18T02:59:21;96188.59;;;8.12;34.37
21182;BME280;10749;46.296;7.524;2023-02-18T03:02:10;96185.13;;;8.12;34.28
21182;BME280;10749;46.296;7.524;2023-02-18T03:10:24;96177.34;;;8.10;34.64
21182;BME280;10749;46.296;7.524;2023-02-18T03:18:37;96170.75;;;7.95;34.72
21182;BME280;10749;46.296;7.524;2023-02-18T03:21:30;96166.00;;;7.89;34.51
21182;BME280;10749;46.296;7.524;2023-02-18T03:24:01;96165.75;;;7.92;34.32
21182;BME280;10749;46.296;7.524;2023-02-18T03:26:29;96171.84;;;7.93;34.42
21182;BME280;10749;46.296;7.524;2023-02-18T03:28:59;96171.34;;;7.99;34.65
21182;BME280;10749;46.296;7.524;2023-02-18T03:31:27;96176.84;;;7.96;33.92
21182;BME280;10749;46.296;7.524;2023-02-18T03:33:58;96173.47;;;7.84;34.66
21182;BME280;10749;46.296;7.524;2023-02-18T03:36:26;96172.34;;;7.77;34.26
21182;BME280;10749;46.296;7.524;2023-02-18T03:38:55;96178.44;;;7.77;34.66
21182;BME280;10749;46.296;7.524;2023-02-18T03:41:23;96177.16;;;7.72;34.91
21182;BME280;10749;46.296;7.524;2023-02-18T03:43:52;96176.66;;;7.78;34.66
21182;BME280;10749;46.296;7.524;2023-02-18T03:46:19;96175.09;;;7.75;34.85
21182;BME280;10749;46.296;7.524;2023-02-18T03:48:45;96184.78;;;7.75;34.91
21182;BME280;10749;46.296;7.524;2023-02-18T03:51:10;96182.25;;;7.64;35.19
21182;BME280;10749;46.296;7.524;2023-02-18T03:53:36;96180.31;;;7.66;35.23
21182;BME280;10749;46.296;7.524;2023-02-18T03:56:01;96176.97;;;7.64;35.54
21182;BME280;10749;46.296;7.524;2023-02-18T03:58:26;96177.34;;;7.59;35.50
21182;BME280;10749;46.296;7.524;2023-02-18T04:00:52;96172.91;;;7.60;35.69
21182;BME280;10749;46.296;7.524;2023-02-18T04:03:17;96169.19;;;7.62;35.51
21182;BME280;10749;46.296;7.524;2023-02-18T04:05:42;96164.25;;;7.69;35.66
21182;BME280;10749;46.296;7.524;2023-02-18T04:08:07;96173.69;;;7.71;35.48
21182;BME280;10749;46.296;7.524;2023-02-18T04:10:33;96168.03;;;7.76;35.53
21182;BME280;10749;46.296;7.524;2023-02-18T04:12:58;96173.56;;;7.73;35.00
21182;BME280;10749;46.296;7.524;2023-02-18T04:15:23;96169.50;;;7.69;35.37
21182;BME280;10749;46.296;7.524;2023-02-18T04:17:49;96170.28;;;7.60;35.91
21182;BME280;10749;46.296;7.524;2023-02-18T04:20:14;96168.09;;;7.65;35.27
21182;BME280;10749;46.296;7.524;2023-02-18T04:22:40;96171.44;;;7.67;35.14
21182;BME280;10749;46.296;7.524;2023-02-18T04:25:06;96175.06;;;7.66;35.47
21182;BME280;10749;46.296;7.524;2023-02-18T04:27:31;96165.75;;;7.62;35.75
21182;BME280;10749;46.296;7.524;2023-02-18T04:29:57;96165.84;;;7.60;35.69
21182;BME280;10749;46.296;7.524;2023-02-18T04:32:22;96162.38;;;7.60;35.70
21182;BME280;10749;46.296;7.524;2023-02-18T04:34:47;96166.53;;;7.62;36.13
21182;BME280;10749;46.296;7.524;2023-02-18T04:37:12;96173.38;;;7.65;36.01
21182;BME280;10749;46.296;7.524;2023-02-18T04:39:38;96167.94;;;7.66;36.06
21182;BME280;10749;46.296;7.524;2023-02-18T04:42:03;96167.00;;;7.67;36.12
21182;BME280;10749;46.296;7.524;2023-02-18T04:44:35;96178.38;;;7.68;35.67
21182;BME280;10749;46.296;7.524;2023-02-18T04:47:02;96174.34;;;7.64;35.89
21182;BME280;10749;46.296;7.524;2023-02-18T04:49:28;96177.72;;;7.55;36.38
21182;BME280;10749;46.296;7.524;2023-02-18T04:51:53;96185.44;;;7.47;36.30
21182;BME280;10749;46.296;7.524;2023-02-18T04:54:18;96183.00;;;7.34;36.55
21182;BME280;10749;46.296;7.524;2023-02-18T04:56:43;96176.88;;;7.33;35.88
21182;BME280;10749;46.296;7.524;2023-02-18T04:59:09;96177.63;;;7.35;35.77
21182;BME280;10749;46.296;7.524;2023-02-18T05:01:35;96184.78;;;7.33;36.29
21182;BME280;10749;46.296;7.524;2023-02-18T05:04:00;96179.41;;;7.35;36.49
21182;BME280;10749;46.296;7.524;2023-02-18T05:06:26;96181.78;;;7.38;36.51
21182;BME280;10749;46.296;7.524;2023-02-18T05:08:51;96181.19;;;7.34;36.72
21182;BME280;10749;46.296;7.524;2023-02-18T05:11:16;96185.06;;;7.30;36.42
21182;BME280;10749;46.296;7.524;2023-02-18T05:13:42;96179.78;;;7.30;36.54
21182;BME280;10749;46.296;7.524;2023-02-18T05:16:07;96177.41;;;7.27;37.06
21182;BME280;10749;46.296;7.524;2023-02-18T05:18:32;96186.84;;;7.30;36.73
21182;BME280;10749;46.296;7.524;2023-02-18T05:20:57;96179.53;;;7.33;36.91
21182;BME280;10749;46.296;7.524;2023-02-18T05:23:23;96184.56;;;7.36;37.01
21182;BME280;10749;46.296;7.524;2023-02-18T05:25:49;96188.06;;;7.26;37.36
21182;BME280;10749;46.296;7.524;2023-02-18T05:28:15;96193.34;;;7.26;37.39
21182;BME280;10749;46.296;7.524;2023-02-18T05:30:40;96189.84;;;7.25;37.60
21182;BME280;10749;46.296;7.524;2023-02-18T05:33:05;96193.41;;;7.35;37.33
21182;BME280;10749;46.296;7.524;2023-02-18T05:35:31;96202.00;;;7.37;37.29
21182;BME280;10749;46.296;7.524;2023-02-18T05:37:56;96205.25;;;7.41;37.31
21182;BME280;10749;46.296;7.524;2023-02-18T05:40:21;96206.06;;;7.41;37.01
21182;BME280;10749;46.296;7.524;2023-02-18T05:42:46;96208.47;;;7.45;37.13
21182;BME280;10749;46.296;7.524;2023-02-18T05:45:12;96202.34;;;7.44;36.98
21182;BME280;10749;46.296;7.524;2023-02-18T05:47:37;96203.44;;;7.41;36.78
21182;BME280;10749;46.296;7.524;2023-02-18T05:50:03;96204.41;;;7.40;36.84
21182;BME280;10749;46.296;7.524;2023-02-18T05:52:28;96200.09;;;7.39;36.72
21182;BME280;10749;46.296;7.524;2023-02-18T05:54:54;96197.47;;;7.39;36.97
21182;BME280;10749;46.296;7.524;2023-02-18T05:57:19;96203.00;;;7.36;37.28
21182;BME280;10749;46.296;7.524;2023-02-18T05:59:44;96201.97;;;7.28;37.26
21182;BME280;10749;46.296;7.524;2023-02-18T06:02:09;96198.97;;;7.21;37.36
21182;BME280;10749;46.296;7.524;2023-02-18T06:04:35;96206.03;;;7.21;37.03
21182;BME280;10749;46.296;7.524;2023-02-18T06:07:00;96202.38;;;7.12;37.32
21182;BME280;10749;46.296;7.524;2023-02-18T06:09:25;96206.94;;;7.10;37.51
21182;BME280;10749;46.296;7.524;2023-02-18T06:11:51;96203.47;;;7.10;37.63
21182;BME280;10749;46.296;7.524;2023-02-18T06:14:16;96200.34;;;7.05;37.68
21182;BME280;10749;46.296;7.524;2023-02-18T06:16:41;96210.03;;;7.04;37.76
21182;BME280;10749;46.296;7.524;2023-02-18T06:19:07;96204.56;;;7.07;37.83
21182;BME280;10749;46.296;7.524;2023-02-18T06:21:32;96199.28;;;7.07;37.91
21182;BME280;10749;46.296;7.524;2023-02-18T06:23:57;96201.19;;;7.05;37.83
21182;BME280;10749;46.296;7.524;2023-02-18T06:26:23;96204.09;;;7.02;37.90
21182;BME280;10749;46.296;7.524;2023-02-18T06:28:48;96198.09;;;7.00;37.48
21182;BME280;10749;46.296;7.524;2023-02-18T06:31:13;96195.03;;;6.95;37.42
21182;BME280;10749;46.296;7.524;2023-02-18T06:33:39;96206.03;;;6.89;37.56
21182;BME280;10749;46.296;7.524;2023-02-18T06:36:06;96197.22;;;6.79;37.99
21182;BME280;10749;46.296;7.524;2023-02-18T06:38:34;96206.19;;;6.76;37.92
21182;BME280;10749;46.296;7.524;2023-02-18T06:41:00;96200.09;;;6.76;38.02
21182;BME280;10749;46.296;7.524;2023-02-18T06:43:25;96203.44;;;6.78;37.97
21182;BME280;10749;46.296;7.524;2023-02-18T06:45:51;96205.56;;;6.84;38.26
21182;BME280;10749;46.296;7.524;2023-02-18T06:48:17;96199.09;;;6.88;37.92
21182;BME280;10749;46.296;7.524;2023-02-18T06:50:42;96200.50;;;6.92;38.07
21182;BME280;10749;46.296;7.524;2023-02-18T06:53:08;96198.59;;;6.94;38.21
21182;BME280;10749;46.296;7.524;2023-02-18T06:55:33;96205.66;;;6.93;38.13
21182;BME280;10749;46.296;7.524;2023-02-18T06:57:59;96201.13;;;6.95;38.18
21182;BME280;10749;46.296;7.524;2023-02-18T07:00:24;96204.78;;;7.04;38.14
21182;BME280;10749;46.296;7.524;2023-02-18T07:02:49;96203.47;;;7.10;38.07
21182;BME280;10749;46.296;7.524;2023-02-18T07:05:15;96200.94;;;7.08;38.34
21182;BME280;10749;46.296;7.524;2023-02-18T07:07:40;96198.19;;;7.10;38.02
21182;BME280;10749;46.296;7.524;2023-02-18T07:10:06;96210.28;;;7.12;37.83
21182;BME280;10749;46.296;7.524;2023-02-18T07:12:31;96205.72;;;7.14;38.16
21182;BME280;10749;46.296;7.524;2023-02-18T07:14:57;96205.81;;;7.24;38.23
21182;BME280;10749;46.296;7.524;2023-02-18T07:17:22;96206.38;;;7.27;38.31
21182;BME280;10749;46.296;7.524;2023-02-18T07:19:47;96208.13;;;7.38;37.84
21182;BME280;10749;46.296;7.524;2023-02-18T07:22:13;96203.44;;;7.41;37.93
21182;BME280;10749;46.296;7.524;2023-02-18T07:24:38;96201.97;;;7.49;38.02
21182;BME280;10749;46.296;7.524;2023-02-18T07:27:04;96212.13;;;7.53;37.86
21182;BME280;10749;46.296;7.524;2023-02-18T07:29:30;96212.94;;;7.54;38.07
21182;BME280;10749;46.296;7.524;2023-02-18T07:31:55;96207.94;;;7.51;38.12
21182;BME280;10749;46.296;7.524;2023-02-18T07:34:21;96206.41;;;7.48;38.15
21182;BME280;10749;46.296;7.524;2023-02-18T07:36:46;96207.47;;;7.46;38.21
21182;BME280;10749;46.296;7.524;2023-02-18T07:39:11;96203.03;;;7.46;38.58
21182;BME280;10749;46.296;7.524;2023-02-18T07:41:37;96197.41;;;7.51;38.28
21182;BME280;10749;46.296;7.524;2023-02-18T07:44:02;96190.22;;;7.53;38.24
21182;BME280;10749;46.296;7.524;2023-02-18T07:46:28;96187.31;;;7.56;38.44
21182;BME280;10749;46.296;7.524;2023-02-18T07:48:53;96189.84;;;7.57;38.42
21182;BME280;10749;46.296;7.524;2023-02-18T07:51:18;96184.41;;;7.59;38.71
21182;BME280;10749;46.296;7.524;2023-02-18T07:53:44;96196.91;;;7.57;38.54
21182;BME280;10749;46.296;7.524;2023-02-18T07:56:09;96191.63;;;7.57;38.70
21182;BME280;10749;46.296;7.524;2023-02-18T07:58:36;96192.66;;;7.65;37.95
21182;BME280;10749;46.296;7.524;2023-02-18T08:01:07;96199.00;;;7.63;38.28
21182;BME280;10749;46.296;7.524;2023-02-18T08:03:33;96198.88;;;7.64;38.39
21182;BME280;10749;46.296;7.524;2023-02-18T08:05:59;96195.16;;;7.67;38.27
21182;BME280;10749;46.296;7.524;2023-02-18T08:08:26;96200.75;;;7.73;38.49
21182;BME280;10749;46.296;7.524;2023-02-18T08:10:55;96200.09;;;7.81;38.62
21182;BME280;10749;46.296;7.524;2023-02-18T08:13:20;96196.41;;;7.93;38.80
21182;BME280;10749;46.296;7.524;2023-02-18T08:15:46;96189.41;;;8.03;37.92
21182;BME280;10749;46.296;7.524;2023-02-18T08:18:20;96200.81;;;8.13;38.17
21182;BME280;10749;46.296;7.524;2023-02-18T08:20:47;96191.72;;;8.27;38.30
21182;BME280;10749;46.296;7.524;2023-02-18T08:23:13;96183.84;;;8.37;38.66
21182;BME280;10749;46.296;7.524;2023-02-18T08:25:39;96189.63;;;8.51;38.78
21182;BME280;10749;46.296;7.524;2023-02-18T08:28:04;96180.75;;;8.62;39.00
21182;BME280;10749;46.296;7.524;2023-02-18T08:30:30;96180.38;;;8.76;38.64
21182;BME280;10749;46.296;7.524;2023-02-18T08:32:56;96184.69;;;8.77;38.38
21182;BME280;10749;46.296;7.524;2023-02-18T08:35:21;96180.53;;;8.84;37.93
21182;BME280;10749;46.296;7.524;2023-02-18T08:37:47;96179.56;;;8.85;38.48
21182;BME280;10749;46.296;7.524;2023-02-18T08:40:12;96183.75;;;8.97;38.68
21182;BME280;10749;46.296;7.524;2023-02-18T08:42:38;96177.06;;;9.12;38.18
21182;BME280;10749;46.296;7.524;2023-02-18T08:45:04;96173.88;;;9.18;38.41
21182;BME280;10749;46.296;7.524;2023-02-18T08:47:30;96180.28;;;9.25;38.63
21182;BME280;10749;46.296;7.524;2023-02-18T08:49:55;96177.34;;;9.28;38.58
21182;BME280;10749;46.296;7.524;2023-02-18T08:52:21;96173.44;;;9.33;38.83
21182;BME280;10749;46.296;7.524;2023-02-18T08:54:46;96170.53;;;9.45;38.93
21182;BME280;10749;46.296;7.524;2023-02-18T08:57:12;96167.19;;;9.53;38.87
21182;BME280;10749;46.296;7.524;2023-02-18T08:59:37;96164.94;;;9.58;38.42
21182;BME280;10749;46.296;7.524;2023-02-18T09:02:02;96158.69;;;9.59;37.88
21182;BME280;10749;46.296;7.524;2023-02-18T09:04:28;96153.81;;;9.64;38.05
21182;BME280;10749;46.296;7.524;2023-02-18T09:06:54;96158.66;;;9.78;38.23
21182;BME280;10749;46.296;7.524;2023-02-18T09:09:19;96153.47;;;9.86;38.13
21182;BME280;10749;46.296;7.524;2023-02-18T09:11:44;96150.28;;;9.92;38.09
21182;BME280;10749;46.296;7.524;2023-02-18T09:14:10;96152.31;;;9.98;38.36
21182;BME280;10749;46.296;7.524;2023-02-18T09:16:37;96144.66;;;10.05;38.39
21182;BME280;10749;46.296;7.524;2023-02-18T09:19:03;96144.63;;;10.14;38.46
21182;BME280;10749;46.296;7.524;2023-02-18T09:21:29;96146.41;;;10.24;38.60
21182;BME280;10749;46.296;7.524;2023-02-18T09:23:54;96143.88;;;10.32;38.71
21182;BME280;10749;46.296;7.524;2023-02-18T09:26:20;96138.41;;;10.43;38.41
21182;BME280;10749;46.296;7.524;2023-02-18T09:28:48;96137.88;;;10.57;38.53
21182;BME280;10749;46.296;7.524;2023-02-18T09:31:16;96141.41;;;10.75;38.61
21182;BME280;10749;46.296;7.524;2023-02-18T09:33:44;96130.16;;;10.91;38.34
21182;BME280;10749;46.296;7.524;2023-02-18T09:36:10;96133.66;;;11.09;38.28
21182;BME280;10749;46.296;7.524;2023-02-18T09:38:35;96142.19;;;11.21;38.01
21182;BME280;10749;46.296;7.524;2023-02-18T09:41:04;96134.63;;;11.26;37.98
21182;BME280;10749;46.296;7.524;2023-02-18T09:43:36;96125.06;;;11.33;38.30
21182;BME280;10749;46.296;7.524;2023-02-18T09:46:03;96125.06;;;11.33;38.05
21182;BME280;10749;46.296;7.524;2023-02-18T09:48:35;96125.06;;;11.33;38.22
21182;BME280;10749;46.296;7.524;2023-02-18T09:51:01;96118.16;;;11.40;38.11
21182;BME280;10749;46.296;7.524;2023-02-18T09:53:27;96121.72;;;11.48;38.16
21182;BME280;10749;46.296;7.524;2023-02-18T09:55:54;96111.41;;;11.63;38.24
21182;BME280;10749;46.296;7.524;2023-02-18T09:58:24;96108.50;;;11.74;38.35
21182;BME280;10749;46.296;7.524;2023-02-18T10:01:03;96106.28;;;11.87;38.17
21182;BME280;10749;46.296;7.524;2023-02-18T10:03:29;96100.69;;;11.98;37.99
21182;BME280;10749;46.296;7.524;2023-02-18T10:06:09;96101.94;;;12.12;37.80
21182;BME280;10749;46.296;7.524;2023-02-18T10:08:39;96101.13;;;12.20;38.25
21182;BME280;10749;46.296;7.524;2023-02-18T10:11:13;96088.25;;;12.33;38.17
21182;BME280;10749;46.296;7.524;2023-02-18T10:13:41;96086.47;;;12.49;38.07
21182;BME280;10749;46.296;7.524;2023-02-18T10:16:07;96083.66;;;12.51;38.07
21182;BME280;10749;46.296;7.524;2023-02-18T10:18:39;96085.53;;;12.67;38.10
21182;BME280;10749;46.296;7.524;2023-02-18T10:21:09;96076.59;;;12.84;37.82
21182;BME280;10749;46.296;7.524;2023-02-18T10:23:38;96082.25;;;12.97;37.71
21182;BME280;10749;46.296;7.524;2023-02-18T10:26:11;96074.28;;;13.05;37.72
21182;BME280;10749;46.296;7.524;2023-02-18T10:28:38;96075.50;;;13.19;38.01
21182;BME280;10749;46.296;7.524;2023-02-18T10:31:07;96072.19;;;13.17;38.00
21182;BME280;10749;46.296;7.524;2023-02-18T10:33:41;96074.84;;;13.25;37.76
21182;BME280;10749;46.296;7.524;2023-02-18T10:36:24;96079.34;;;13.40;38.02
21182;BME280;10749;46.296;7.524;2023-02-18T10:44:50;96062.75;;;14.02;37.73
21182;BME280;10749;46.296;7.524;2023-02-18T10:47:47;96059.03;;;14.19;37.16
21182;BME280;10749;46.296;7.524;2023-02-18T10:50:36;96056.66;;;14.32;37.71
21182;BME280;10749;46.296;7.524;2023-02-18T10:53:10;96056.91;;;14.53;37.49
21182;BME280;10749;46.296;7.524;2023-02-18T10:55:42;96044.88;;;14.65;37.52
21182;BME280;10749;46.296;7.524;2023-02-18T10:58:31;96041.69;;;14.93;37.45
21182;BME280;10749;46.296;7.524;2023-02-18T11:00:59;96040.84;;;15.15;37.65
21182;BME280;10749;46.296;7.524;2023-02-18T11:03:40;96035.59;;;15.44;37.47
21182;BME280;10749;46.296;7.524;2023-02-18T11:07:01;96029.78;;;15.63;37.61
21182;BME280;10749;46.296;7.524;2023-02-18T11:09:00;96030.81;;;15.77;37.24
21182;BME280;10749;46.296;7.524;2023-02-18T11:11:37;96028.44;;;15.97;37.45
21182;BME280;10749;46.296;7.524;2023-02-18T11:14:05;96021.69;;;16.15;37.23
21182;BME280;10749;46.296;7.524;2023-02-18T11:16:39;96020.78;;;16.23;36.98
21182;BME280;10749;46.296;7.524;2023-02-18T11:19:32;96017.44;;;16.21;36.96
21182;BME280;10749;46.296;7.524;2023-02-18T11:22:17;96010.44;;;16.35;36.60
21182;BME280;10749;46.296;7.524;2023-02-18T11:24:43;95999.25;;;16.46;36.61
21182;BME280;10749;46.296;7.524;2023-02-18T11:27:37;95990.88;;;16.64;36.57
21182;BME280;10749;46.296;7.524;2023-02-18T11:32:48;95983.56;;;16.72;36.51
21182;BME280;10749;46.296;7.524;2023-02-18T11:35:19;95972.97;;;16.64;36.09
21182;BME280;10749;46.296;7.524;2023-02-18T11:37:45;95977.94;;;16.67;35.97
21182;BME280;10749;46.296;7.524;2023-02-18T11:40:21;95973.81;;;16.86;36.19
21182;BME280;10749;46.296;7.524;2023-02-18T11:42:47;95960.41;;;17.07;36.28
21182;BME280;10749;46.296;7.524;2023-02-18T11:45:41;95956.28;;;17.26;36.13
21182;BME280;10749;46.296;7.524;2023-02-18T11:48:15;95950.53;;;17.29;36.20
21182;BME280;10749;46.296;7.524;2023-02-18T11:50:41;95947.13;;;17.41;35.98
21182;BME280;10749;46.296;7.524;2023-02-18T11:53:32;95948.00;;;17.48;35.74
21182;BME280;10749;46.296;7.524;2023-02-18T11:56:01;95945.03;;;17.65;35.74
21182;BME280;10749;46.296;7.524;2023-02-18T11:58:36;95943.28;;;17.78;35.67
21182;BME280;10749;46.296;7.524;2023-02-18T12:01:03;95933.13;;;18.08;35.47
21182;BME280;10749;46.296;7.524;2023-02-18T12:04:04;95925.59;;;18.31;35.77
21182;BME280;10749;46.296;7.524;2023-02-18T12:06:44;95928.38;;;18.58;35.50
21182;BME280;10749;46.296;7.524;2023-02-18T12:09:30;95930.25;;;18.77;35.51
21182;BME280;10749;46.296;7.524;2023-02-18T12:12:10;95920.97;;;18.66;35.31
21182;BME280;10749;46.296;7.524;2023-02-18T12:14:38;95914.75;;;18.53;35.41
21182;BME280;10749;46.296;7.524;2023-02-18T12:20:18;95911.91;;;18.67;35.18
21182;BME280;10749;46.296;7.524;2023-02-18T12:22:50;95909.25;;;18.87;35.45
21182;BME280;10749;46.296;7.524;2023-02-18T12:29:18;95897.47;;;19.27;35.12
21182;BME280;10749;46.296;7.524;2023-02-18T12:31:39;95889.78;;;19.64;34.80
21182;BME280;10749;46.296;7.524;2023-02-18T12:34:26;95888.91;;;19.90;34.38
21182;BME280;10749;46.296;7.524;2023-02-18T12:37:26;95888.63;;;20.11;34.21
21182;BME280;10749;46.296;7.524;2023-02-18T12:47:54;95869.84;;;20.49;33.15
21182;BME280;10749;46.296;7.524;2023-02-18T12:56:33;95861.84;;;20.67;32.05
21182;BME280;10749;46.296;7.524;2023-02-18T13:04:24;95859.69;;;21.07;32.18
21182;BME280;10749;46.296;7.524;2023-02-18T13:07:20;95851.91;;;21.24;31.86
21182;BME280;10749;46.296;7.524;2023-02-18T13:12:42;95848.97;;;21.00;31.97
21182;BME280;10749;46.296;7.524;2023-02-18T13:15:36;95854.44;;;20.87;31.51
21182;BME280;10749;46.296;7.524;2023-02-18T13:18:09;95841.53;;;20.71;30.69
21182;BME280;10749;46.296;7.524;2023-02-18T13:20:44;95846.38;;;20.87;30.83
21182;BME280;10749;46.296;7.524;2023-02-18T13:23:18;95839.56;;;21.16;30.85
21182;BME280;10749;46.296;7.524;2023-02-18T13:25:44;95841.41;;;21.40;30.65
21182;BME280;10749;46.296;7.524;2023-02-18T13:28:22;95839.78;;;21.33;29.93
21182;BME280;10749;46.296;7.524;2023-02-18T13:39:06;95822.56;;;20.91;30.16
21182;BME280;10749;46.296;7.524;2023-02-18T13:41:40;95810.91;;;20.72;29.55
21182;BME280;10749;46.296;7.524;2023-02-18T13:46:57;95809.50;;;20.94;29.90
21182;BME280;10749;46.296;7.524;2023-02-18T13:49:34;95809.06;;;20.97;29.60
21182;BME280;10749;46.296;7.524;2023-02-18T13:52:02;95806.53;;;21.02;29.77
21182;BME280;10749;46.296;7.524;2023-02-18T13:54:32;95810.81;;;21.10;29.70
21182;BME280;10749;46.296;7.524;2023-02-18T13:57:03;95801.47;;;21.12;29.35
21182;BME280;10749;46.296;7.524;2023-02-18T13:59:32;95807.44;;;21.39;29.02
21182;BME280;10749;46.296;7.524;2023-02-18T14:25:52;95782.94;;;26.87;26.70
21182;BME280;10749;46.296;7.524;2023-02-18T14:33:38;95792.66;;;27.98;24.95
21182;BME280;10749;46.296;7.524;2023-02-18T14:36:17;95785.22;;;28.46;24.20
21182;BME280;10749;46.296;7.524;2023-02-18T14:48:18;95759.28;;;25.08;19.87
21182;BME280;10749;46.296;7.524;2023-02-18T14:50:48;95753.78;;;22.75;20.51
21182;BME280;10749;46.296;7.524;2023-02-18T14:53:17;95755.22;;;21.40;21.41
21182;BME280;10749;46.296;7.524;2023-02-18T14:55:46;95741.63;;;20.43;22.11
21182;BME280;10749;46.296;7.524;2023-02-18T15:00:48;95733.94;;;19.46;23.71
21182;BME280;10749;46.296;7.524;2023-02-18T15:03:16;95729.06;;;19.16;23.91
21182;BME280;10749;46.296;7.524;2023-02-18T15:05:44;95722.06;;;19.02;24.43
21182;BME280;10749;46.296;7.524;2023-02-18T15:08:16;95732.22;;;18.87;25.05
21182;BME280;10749;46.296;7.524;2023-02-18T15:13:35;95724.81;;;18.56;25.88
21182;BME280;10749;46.296;7.524;2023-02-18T15:16:06;95725.03;;;18.41;26.34
21182;BME280;10749;46.296;7.524;2023-02-18T15:18:35;95720.06;;;18.32;26.35
21182;BME280;10749;46.296;7.524;2023-02-18T15:21:04;95714.06;;;18.23;26.44
21182;BME280;10749;46.296;7.524;2023-02-18T15:23:30;95707.25;;;18.14;27.07
21182;BME280;10749;46.296;7.524;2023-02-18T15:25:58;95701.91;;;18.14;26.92
21182;BME280;10749;46.296;7.524;2023-02-18T15:28:26;95708.50;;;18.12;26.99
21182;BME280;10749;46.296;7.524;2023-02-18T15:30:52;95704.59;;;18.14;26.99